sensor_id;sensor_type;location;lat;lon;timestamp;P1;durP1;ratioP1;P2;durP2;ratioP2
72785;SDS011;60902;53.876;10.674;2023-09-18T00:00:00;6.80;;;3.95;;
72785;SDS011;60902;53.876;10.674;2023-09-18T00:00:18;6.57;;;4.10;;
72785;SDS011;60902;53.876;10.674;2023-09-18T00:00:31;6.18;;;4.10;;
72785;SDS011;60902;53.876;10.674;2023-09-18T00:00:43;6.10;;;4.15;;
72785;SDS011;60902;53.876;10.674;2023-09-18T00:00:54;6.25;;;4.28;;
72785;SDS011;60902;53.876;10.674;2023-09-18T00:01:06;6.20;;;4.13;;
72785;SDS011;60902;53.876;10.674;2023-09-18T00:01:18;6.32;;;4.30;;
72785;SDS011;60902;53.876;10.674;2023-09-18T00:01:30;6.45;;;4.10;;
72785;SDS011;60902;53.876;10.674;2023-09-18T00:01:40;6.50;;;4.13;;
72785;SDS011;60902;53.876;10.674;2023-09-18T00:01:51;6.53;;;4.17;;
72785;SDS011;60902;53.876;10.674;2023-09-18T00:02:02;6.30;;;4.38;;
72785;SDS011;60902;53.876;10.674;2023-09-18T00:02:14;6.40;;;4.43;;
72785;SDS011;60902;53.876;10.674;2023-09-18T00:02:25;6.25;;;4.30;;
72785;SDS011;60902;53.876;10.674;2023-09-18T00:02:38;6.25;;;4.22;;
72785;SDS011;60902;53.876;10.674;2023-09-18T00:02:49;6.65;;;4.18;;
72785;SDS011;60902;53.876;10.674;2023-09-18T00:03:00;6.40;;;4.07;;
72785;SDS011;60902;53.876;10.674;2023-09-18T00:03:13;6.25;;;4.00;;
72785;SDS011;60902;53.876;10.674;2023-09-18T00:03:23;5.83;;;4.00;;
72785;SDS011;60902;53.876;10.674;2023-09-18T00:03:36;6.15;;;4.07;;
72785;SDS011;60902;53.876;10.674;2023-09-18T00:03:46;6.22;;;3.92;;
72785;SDS011;60902;53.876;10.674;2023-09-18T00:03:57;6.40;;;4.00;;
72785;SDS011;60902;53.876;10.674;2023-09-18T00:04:09;6.18;;;3.95;;
72785;SDS011;60902;53.876;10.674;2023-09-18T00:04:21;6.00;;;4.00;;
72785;SDS011;60902;53.876;10.674;2023-09-18T00:04:32;6.57;;;4.13;;
72785;SDS011;60902;53.876;10.674;2023-09-18T00:04:43;7.18;;;4.57;;
72785;SDS011;60902;53.876;10.674;2023-09-18T00:04:54;7.05;;;4.40;;
72785;SDS011;60902;53.876;10.674;2023-09-18T00:05:05;6.18;;;4.20;;
72785;SDS011;60902;53.876;10.674;2023-09-18T00:05:17;6.00;;;4.07;;
72785;SDS011;60902;53.876;10.674;2023-09-18T00:05:27;6.18;;;4.45;;
72785;SDS011;60902;53.876;10.674;2023-09-18T00:05:38;6.30;;;4.68;;
72785;SDS011;60902;53.876;10.674;2023-09-18T00:05:52;6.65;;;4.55;;
72785;SDS011;60902;53.876;10.674;2023-09-18T00:06:06;6.57;;;4.05;;
72785;SDS011;60902;53.876;10.674;2023-09-18T00:06:21;5.97;;;3.85;;
72785;SDS011;60902;53.876;10.674;2023-09-18T00:06:37;6.22;;;4.20;;
72785;SDS011;60902;53.876;10.674;2023-09-18T00:06:48;6.03;;;4.03;;
72785;SDS011;60902;53.876;10.674;2023-09-18T00:06:59;5.80;;;4.00;;
72785;SDS011;60902;53.876;10.674;2023-09-18T00:07:10;6.40;;;4.15;;
72785;SDS011;60902;53.876;10.674;2023-09-18T00:07:21;6.60;;;4.40;;
72785;SDS011;60902;53.876;10.674;2023-09-18T00:07:32;6.63;;;4.28;;
72785;SDS011;60902;53.876;10.674;2023-09-18T00:07:43;6.28;;;3.92;;
72785;SDS011;60902;53.876;10.674;2023-09-18T00:07:54;6.38;;;3.83;;
72785;SDS011;60902;53.876;10.674;2023-09-18T00:08:05;6.25;;;3.70;;
72785;SDS011;60902;53.876;10.674;2023-09-18T00:08:17;6.85;;;3.88;;
72785;SDS011;60902;53.876;10.674;2023-09-18T00:08:31;6.93;;;4.18;;
72785;SDS011;60902;53.876;10.674;2023-09-18T00:08:42;6.97;;;4.30;;
72785;SDS011;60902;53.876;10.674;2023-09-18T00:08:53;6.30;;;4.33;;
72785;SDS011;60902;53.876;10.674;2023-09-18T00:09:04;6.63;;;4.50;;
72785;SDS011;60902;53.876;10.674;2023-09-18T00:09:18;6.97;;;4.50;;
72785;SDS011;60902;53.876;10.674;2023-09-18T00:09:29;6.28;;;4.13;;
72785;SDS011;60902;53.876;10.674;2023-09-18T00:09:47;5.97;;;4.18;;
72785;SDS011;60902;53.876;10.674;2023-09-18T00:10:01;6.25;;;4.30;;
72785;SDS011;60902;53.876;10.674;2023-09-18T00:10:12;6.50;;;4.20;;
72785;SDS011;60902;53.876;10.674;2023-09-18T00:10:23;6.55;;;4.30;;
72785;SDS011;60902;53.876;10.674;2023-09-18T00:10:36;6.30;;;4.50;;
72785;SDS011;60902;53.876;10.674;2023-09-18T00:10:51;6.20;;;4.45;;
72785;SDS011;60902;53.876;10.674;2023-09-18T00:11:14;6.10;;;4.05;;
72785;SDS011;60902;53.876;10.674;2023-09-18T00:11:29;6.65;;;4.07;;
72785;SDS011;60902;53.876;10.674;2023-09-18T00:11:40;6.55;;;3.90;;
72785;SDS011;60902;53.876;10.674;2023-09-18T00:11:51;6.20;;;3.83;;
72785;SDS011;60902;53.876;10.674;2023-09-18T00:12:03;6.50;;;3.85;;
72785;SDS011;60902;53.876;10.674;2023-09-18T00:12:14;6.50;;;4.00;;
72785;SDS011;60902;53.876;10.674;2023-09-18T00:12:25;6.32;;;3.97;;
72785;SDS011;60902;53.876;10.674;2023-09-18T00:12:36;6.70;;;4.18;;
72785;SDS011;60902;53.876;10.674;2023-09-18T00:12:47;6.60;;;4.18;;
72785;SDS011;60902;53.876;10.674;2023-09-18T00:12:59;6.50;;;4.20;;
72785;SDS011;60902;53.876;10.674;2023-09-18T00:13:11;6.50;;;4.00;;
72785;SDS011;60902;53.876;10.674;2023-09-18T00:13:22;6.78;;;4.38;;
72785;SDS011;60902;53.876;10.674;2023-09-18T00:13:33;6.90;;;4.40;;
72785;SDS011;60902;53.876;10.674;2023-09-18T00:13:44;7.10;;;4.55;;
72785;SDS011;60902;53.876;10.674;2023-09-18T00:13:55;7.37;;;4.47;;
72785;SDS011;60902;53.876;10.674;2023-09-18T00:14:07;7.13;;;4.38;;
72785;SDS011;60902;53.876;10.674;2023-09-18T00:14:17;6.70;;;4.03;;
72785;SDS011;60902;53.876;10.674;2023-09-18T00:14:28;6.97;;;4.00;;
72785;SDS011;60902;53.876;10.674;2023-09-18T00:14:39;6.60;;;4.00;;
72785;SDS011;60902;53.876;10.674;2023-09-18T00:14:54;6.40;;;4.18;;
72785;SDS011;60902;53.876;10.674;2023-09-18T00:15:05;6.70;;;4.20;;
72785;SDS011;60902;53.876;10.674;2023-09-18T00:15:18;6.82;;;4.20;;
72785;SDS011;60902;53.876;10.674;2023-09-18T00:15:29;6.82;;;4.28;;
72785;SDS011;60902;53.876;10.674;2023-09-18T00:15:41;7.10;;;4.22;;
72785;SDS011;60902;53.876;10.674;2023-09-18T00:15:56;7.50;;;4.20;;
72785;SDS011;60902;53.876;10.674;2023-09-18T00:16:09;7.63;;;4.03;;
72785;SDS011;60902;53.876;10.674;2023-09-18T00:16:22;7.72;;;4.13;;
72785;SDS011;60902;53.876;10.674;2023-09-18T00:16:35;7.43;;;4.35;;
72785;SDS011;60902;53.876;10.674;2023-09-18T00:16:46;7.68;;;4.38;;
72785;SDS011;60902;53.876;10.674;2023-09-18T00:16:58;7.00;;;4.50;;
72785;SDS011;60902;53.876;10.674;2023-09-18T00:17:10;6.78;;;4.53;;
72785;SDS011;60902;53.876;10.674;2023-09-18T00:17:21;6.45;;;4.38;;
72785;SDS011;60902;53.876;10.674;2023-09-18T00:17:34;6.13;;;4.18;;
72785;SDS011;60902;53.876;10.674;2023-09-18T00:17:45;5.80;;;4.00;;
72785;SDS011;60902;53.876;10.674;2023-09-18T00:17:56;5.70;;;4.00;;
72785;SDS011;60902;53.876;10.674;2023-09-18T00:18:06;5.85;;;3.90;;
72785;SDS011;60902;53.876;10.674;2023-09-18T00:18:18;5.90;;;3.78;;
72785;SDS011;60902;53.876;10.674;2023-09-18T00:18:29;6.55;;;3.85;;
72785;SDS011;60902;53.876;10.674;2023-09-18T00:18:42;6.72;;;4.05;;
72785;SDS011;60902;53.876;10.674;2023-09-18T00:18:54;6.90;;;4.38;;
72785;SDS011;60902;53.876;10.674;2023-09-18T00:19:08;6.73;;;4.50;;
72785;SDS011;60902;53.876;10.674;2023-09-18T00:19:20;6.35;;;4.50;;
72785;SDS011;60902;53.876;10.674;2023-09-18T00:19:31;6.93;;;4.55;;
72785;SDS011;60902;53.876;10.674;2023-09-18T00:19:43;7.05;;;4.40;;
72785;SDS011;60902;53.876;10.674;2023-09-18T00:19:54;7.07;;;4.20;;
72785;SDS011;60902;53.876;10.674;2023-09-18T00:20:05;6.15;;;3.90;;
72785;SDS011;60902;53.876;10.674;2023-09-18T00:20:17;6.07;;;4.00;;
72785;SDS011;60902;53.876;10.674;2023-09-18T00:20:31;6.35;;;4.07;;
72785;SDS011;60902;53.876;10.674;2023-09-18T00:20:46;7.20;;;4.22;;
72785;SDS011;60902;53.876;10.674;2023-09-18T00:20:58;7.05;;;4.20;;
72785;SDS011;60902;53.876;10.674;2023-09-18T00:21:09;7.00;;;4.20;;
72785;SDS011;60902;53.876;10.674;2023-09-18T00:21:20;6.50;;;4.13;;
72785;SDS011;60902;53.876;10.674;2023-09-18T00:21:31;6.30;;;4.45;;
72785;SDS011;60902;53.876;10.674;2023-09-18T00:21:42;7.07;;;4.57;;
72785;SDS011;60902;53.876;10.674;2023-09-18T00:21:53;7.43;;;4.63;;
72785;SDS011;60902;53.876;10.674;2023-09-18T00:22:04;8.27;;;4.32;;
72785;SDS011;60902;53.876;10.674;2023-09-18T00:22:16;6.82;;;3.78;;
72785;SDS011;60902;53.876;10.674;2023-09-18T00:22:38;6.07;;;4.07;;
72785;SDS011;60902;53.876;10.674;2023-09-18T00:22:51;6.88;;;4.45;;
72785;SDS011;60902;53.876;10.674;2023-09-18T00:23:02;6.70;;;4.30;;
72785;SDS011;60902;53.876;10.674;2023-09-18T00:23:16;6.10;;;4.13;;
72785;SDS011;60902;53.876;10.674;2023-09-18T00:23:27;5.95;;;4.05;;
72785;SDS011;60902;53.876;10.674;2023-09-18T00:23:38;6.18;;;4.15;;
72785;SDS011;60902;53.876;10.674;2023-09-18T00:23:51;6.40;;;4.30;;
72785;SDS011;60902;53.876;10.674;2023-09-18T00:24:03;6.40;;;4.63;;
72785;SDS011;60902;53.876;10.674;2023-09-18T00:24:15;6.55;;;4.63;;
72785;SDS011;60902;53.876;10.674;2023-09-18T00:24:27;6.53;;;4.47;;
72785;SDS011;60902;53.876;10.674;2023-09-18T00:24:38;6.30;;;4.23;;
72785;SDS011;60902;53.876;10.674;2023-09-18T00:24:49;6.13;;;4.10;;
72785;SDS011;60902;53.876;10.674;2023-09-18T00:25:00;6.07;;;4.13;;
72785;SDS011;60902;53.876;10.674;2023-09-18T00:25:12;6.28;;;4.22;;
72785;SDS011;60902;53.876;10.674;2023-09-18T00:25:25;6.45;;;4.25;;
72785;SDS011;60902;53.876;10.674;2023-09-18T00:25:36;6.20;;;4.22;;
72785;SDS011;60902;53.876;10.674;2023-09-18T00:25:47;5.85;;;3.90;;
72785;SDS011;60902;53.876;10.674;2023-09-18T00:25:58;6.10;;;4.10;;
72785;SDS011;60902;53.876;10.674;2023-09-18T00:26:10;6.40;;;4.13;;
72785;SDS011;60902;53.876;10.674;2023-09-18T00:26:23;6.97;;;4.50;;
72785;SDS011;60902;53.876;10.674;2023-09-18T00:26:34;6.65;;;4.07;;
72785;SDS011;60902;53.876;10.674;2023-09-18T00:26:45;6.93;;;4.10;;
72785;SDS011;60902;53.876;10.674;2023-09-18T00:26:58;7.03;;;4.22;;
72785;SDS011;60902;53.876;10.674;2023-09-18T00:27:10;7.00;;;4.43;;
72785;SDS011;60902;53.876;10.674;2023-09-18T00:27:21;6.70;;;4.38;;
72785;SDS011;60902;53.876;10.674;2023-09-18T00:27:32;6.20;;;4.00;;
72785;SDS011;60902;53.876;10.674;2023-09-18T00:27:43;6.75;;;3.92;;
72785;SDS011;60902;53.876;10.674;2023-09-18T00:27:54;6.97;;;4.10;;
72785;SDS011;60902;53.876;10.674;2023-09-18T00:28:06;7.15;;;4.30;;
72785;SDS011;60902;53.876;10.674;2023-09-18T00:28:17;6.68;;;4.10;;
72785;SDS011;60902;53.876;10.674;2023-09-18T00:28:28;6.72;;;4.13;;
72785;SDS011;60902;53.876;10.674;2023-09-18T00:28:39;6.57;;;4.17;;
72785;SDS011;60902;53.876;10.674;2023-09-18T00:28:49;6.43;;;4.20;;
72785;SDS011;60902;53.876;10.674;2023-09-18T00:29:02;6.35;;;4.40;;
72785;SDS011;60902;53.876;10.674;2023-09-18T00:29:18;6.68;;;4.50;;
72785;SDS011;60902;53.876;10.674;2023-09-18T00:29:29;6.82;;;4.72;;
72785;SDS011;60902;53.876;10.674;2023-09-18T00:29:39;7.10;;;4.90;;
72785;SDS011;60902;53.876;10.674;2023-09-18T00:29:50;7.25;;;4.65;;
72785;SDS011;60902;53.876;10.674;2023-09-18T00:30:04;6.68;;;4.32;;
72785;SDS011;60902;53.876;10.674;2023-09-18T00:30:17;6.00;;;4.13;;
72785;SDS011;60902;53.876;10.674;2023-09-18T00:30:28;6.10;;;4.30;;
72785;SDS011;60902;53.876;10.674;2023-09-18T00:30:42;6.47;;;4.45;;
72785;SDS011;60902;53.876;10.674;2023-09-18T00:30:56;7.43;;;4.40;;
72785;SDS011;60902;53.876;10.674;2023-09-18T00:31:07;7.63;;;4.57;;
72785;SDS011;60902;53.876;10.674;2023-09-18T00:31:18;7.82;;;4.75;;
72785;SDS011;60902;53.876;10.674;2023-09-18T00:31:29;7.10;;;4.65;;
72785;SDS011;60902;53.876;10.674;2023-09-18T00:31:40;6.78;;;4.53;;
72785;SDS011;60902;53.876;10.674;2023-09-18T00:31:52;6.40;;;4.38;;
72785;SDS011;60902;53.876;10.674;2023-09-18T00:32:03;6.25;;;4.28;;
72785;SDS011;60902;53.876;10.674;2023-09-18T00:32:15;6.03;;;4.05;;
72785;SDS011;60902;53.876;10.674;2023-09-18T00:32:25;5.90;;;3.90;;
72785;SDS011;60902;53.876;10.674;2023-09-18T00:32:39;6.40;;;4.07;;
72785;SDS011;60902;53.876;10.674;2023-09-18T00:32:50;6.73;;;4.17;;
72785;SDS011;60902;53.876;10.674;2023-09-18T00:33:01;7.10;;;4.28;;
72785;SDS011;60902;53.876;10.674;2023-09-18T00:33:12;6.90;;;4.35;;
72785;SDS011;60902;53.876;10.674;2023-09-18T00:33:23;6.80;;;4.43;;
72785;SDS011;60902;53.876;10.674;2023-09-18T00:33:39;6.80;;;4.38;;
72785;SDS011;60902;53.876;10.674;2023-09-18T00:33:52;6.88;;;4.20;;
72785;SDS011;60902;53.876;10.674;2023-09-18T00:34:03;6.70;;;4.25;;
72785;SDS011;60902;53.876;10.674;2023-09-18T00:34:14;6.82;;;4.22;;
72785;SDS011;60902;53.876;10.674;2023-09-18T00:34:25;6.72;;;4.30;;
72785;SDS011;60902;53.876;10.674;2023-09-18T00:34:36;6.57;;;4.55;;
72785;SDS011;60902;53.876;10.674;2023-09-18T00:34:47;7.13;;;4.80;;
72785;SDS011;60902;53.876;10.674;2023-09-18T00:34:58;7.18;;;4.90;;
72785;SDS011;60902;53.876;10.674;2023-09-18T00:35:09;7.07;;;4.70;;
72785;SDS011;60902;53.876;10.674;2023-09-18T00:35:19;6.50;;;4.60;;
72785;SDS011;60902;53.876;10.674;2023-09-18T00:35:32;6.78;;;4.90;;
72785;SDS011;60902;53.876;10.674;2023-09-18T00:35:44;6.75;;;4.88;;
72785;SDS011;60902;53.876;10.674;2023-09-18T00:35:56;6.60;;;4.78;;
72785;SDS011;60902;53.876;10.674;2023-09-18T00:36:11;7.10;;;4.90;;
72785;SDS011;60902;53.876;10.674;2023-09-18T00:36:23;7.60;;;5.05;;
72785;SDS011;60902;53.876;10.674;2023-09-18T00:36:34;7.25;;;4.55;;
72785;SDS011;60902;53.876;10.674;2023-09-18T00:36:45;6.40;;;4.27;;
72785;SDS011;60902;53.876;10.674;2023-09-18T00:36:56;6.45;;;4.15;;
72785;SDS011;60902;53.876;10.674;2023-09-18T00:37:07;6.30;;;4.20;;
72785;SDS011;60902;53.876;10.674;2023-09-18T00:37:17;6.50;;;4.00;;
72785;SDS011;60902;53.876;10.674;2023-09-18T00:37:29;6.65;;;4.00;;
72785;SDS011;60902;53.876;10.674;2023-09-18T00:37:40;6.70;;;4.00;;
72785;SDS011;60902;53.876;10.674;2023-09-18T00:37:53;6.28;;;3.90;;
72785;SDS011;60902;53.876;10.674;2023-09-18T00:38:03;6.35;;;4.00;;
72785;SDS011;60902;53.876;10.674;2023-09-18T00:38:16;6.28;;;4.13;;
72785;SDS011;60902;53.876;10.674;2023-09-18T00:38:30;6.18;;;4.38;;
72785;SDS011;60902;53.876;10.674;2023-09-18T00:38:44;6.20;;;4.40;;
72785;SDS011;60902;53.876;10.674;2023-09-18T00:38:56;6.25;;;4.43;;
72785;SDS011;60902;53.876;10.674;2023-09-18T00:39:10;6.32;;;4.38;;
72785;SDS011;60902;53.876;10.674;2023-09-18T00:39:22;6.35;;;4.35;;
72785;SDS011;60902;53.876;10.674;2023-09-18T00:39:33;6.32;;;4.38;;
72785;SDS011;60902;53.876;10.674;2023-09-18T00:39:43;6.50;;;4.27;;
72785;SDS011;60902;53.876;10.674;2023-09-18T00:39:54;6.70;;;4.55;;
72785;SDS011;60902;53.876;10.674;2023-09-18T00:40:05;6.80;;;4.65;;
72785;SDS011;60902;53.876;10.674;2023-09-18T00:40:18;6.78;;;4.65;;
72785;SDS011;60902;53.876;10.674;2023-09-18T00:40:29;6.90;;;4.43;;
72785;SDS011;60902;53.876;10.674;2023-09-18T00:40:40;6.72;;;4.13;;
72785;SDS011;60902;53.876;10.674;2023-09-18T00:40:53;6.47;;;4.03;;
72785;SDS011;60902;53.876;10.674;2023-09-18T00:41:03;6.30;;;4.10;;
72785;SDS011;60902;53.876;10.674;2023-09-18T00:41:16;6.40;;;4.23;;
72785;SDS011;60902;53.876;10.674;2023-09-18T00:41:27;6.00;;;4.07;;
72785;SDS011;60902;53.876;10.674;2023-09-18T00:41:37;5.93;;;4.25;;
72785;SDS011;60902;53.876;10.674;2023-09-18T00:41:49;6.00;;;4.28;;
72785;SDS011;60902;53.876;10.674;2023-09-18T00:42:04;6.88;;;4.20;;
72785;SDS011;60902;53.876;10.674;2023-09-18T00:42:15;7.10;;;4.50;;
72785;SDS011;60902;53.876;10.674;2023-09-18T00:42:28;7.18;;;4.63;;
72785;SDS011;60902;53.876;10.674;2023-09-18T00:42:38;6.50;;;4.50;;
72785;SDS011;60902;53.876;10.674;2023-09-18T00:42:49;6.30;;;4.30;;
72785;SDS011;60902;53.876;10.674;2023-09-18T00:43:01;6.07;;;4.25;;
72785;SDS011;60902;53.876;10.674;2023-09-18T00:43:12;6.03;;;4.20;;
72785;SDS011;60902;53.876;10.674;2023-09-18T00:43:23;5.88;;;4.20;;
72785;SDS011;60902;53.876;10.674;2023-09-18T00:43:34;6.13;;;4.35;;
72785;SDS011;60902;53.876;10.674;2023-09-18T00:43:45;6.18;;;4.60;;
72785;SDS011;60902;53.876;10.674;2023-09-18T00:43:56;6.25;;;4.53;;
72785;SDS011;60902;53.876;10.674;2023-09-18T00:44:10;6.20;;;4.50;;
72785;SDS011;60902;53.876;10.674;2023-09-18T00:44:21;6.38;;;4.22;;
72785;SDS011;60902;53.876;10.674;2023-09-18T00:44:31;6.63;;;4.32;;
72785;SDS011;60902;53.876;10.674;2023-09-18T00:44:42;7.40;;;4.25;;
72785;SDS011;60902;53.876;10.674;2023-09-18T00:44:53;7.27;;;4.33;;
72785;SDS011;60902;53.876;10.674;2023-09-18T00:45:06;7.22;;;4.32;;
72785;SDS011;60902;53.876;10.674;2023-09-18T00:45:18;6.47;;;4.38;;
72785;SDS011;60902;53.876;10.674;2023-09-18T00:45:29;6.35;;;4.30;;
72785;SDS011;60902;53.876;10.674;2023-09-18T00:45:40;6.28;;;4.25;;
72785;SDS011;60902;53.876;10.674;2023-09-18T00:45:54;6.40;;;4.57;;
72785;SDS011;60902;53.876;10.674;2023-09-18T00:46:05;7.00;;;4.93;;
72785;SDS011;60902;53.876;10.674;2023-09-18T00:46:16;7.68;;;5.00;;
72785;SDS011;60902;53.876;10.674;2023-09-18T00:46:27;7.68;;;4.85;;
72785;SDS011;60902;53.876;10.674;2023-09-18T00:46:38;7.43;;;4.88;;
72785;SDS011;60902;53.876;10.674;2023-09-18T00:46:49;6.80;;;4.75;;
72785;SDS011;60902;53.876;10.674;2023-09-18T00:47:02;6.53;;;4.47;;
72785;SDS011;60902;53.876;10.674;2023-09-18T00:47:13;6.25;;;4.40;;
72785;SDS011;60902;53.876;10.674;2023-09-18T00:47:25;6.25;;;4.43;;
72785;SDS011;60902;53.876;10.674;2023-09-18T00:47:36;6.25;;;4.30;;
72785;SDS011;60902;53.876;10.674;2023-09-18T00:47:47;6.85;;;4.65;;
72785;SDS011;60902;53.876;10.674;2023-09-18T00:47:58;6.67;;;4.50;;
72785;SDS011;60902;53.876;10.674;2023-09-18T00:48:09;6.82;;;4.60;;
72785;SDS011;60902;53.876;10.674;2023-09-18T00:48:20;6.20;;;4.32;;
72785;SDS011;60902;53.876;10.674;2023-09-18T00:48:33;5.95;;;4.30;;
72785;SDS011;60902;53.876;10.674;2023-09-18T00:48:44;6.03;;;4.17;;
72785;SDS011;60902;53.876;10.674;2023-09-18T00:48:56;6.28;;;4.35;;
72785;SDS011;60902;53.876;10.674;2023-09-18T00:49:07;6.18;;;4.25;;
72785;SDS011;60902;53.876;10.674;2023-09-18T00:49:19;6.63;;;4.38;;
72785;SDS011;60902;53.876;10.674;2023-09-18T00:49:30;6.93;;;4.47;;
72785;SDS011;60902;53.876;10.674;2023-09-18T00:49:43;7.00;;;4.57;;
72785;SDS011;60902;53.876;10.674;2023-09-18T00:49:58;6.80;;;4.72;;
72785;SDS011;60902;53.876;10.674;2023-09-18T00:50:09;6.40;;;4.68;;
72785;SDS011;60902;53.876;10.674;2023-09-18T00:50:23;6.22;;;4.53;;
72785;SDS011;60902;53.876;10.674;2023-09-18T00:50:36;6.35;;;4.50;;
72785;SDS011;60902;53.876;10.674;2023-09-18T00:50:48;6.75;;;4.70;;
72785;SDS011;60902;53.876;10.674;2023-09-18T00:50:59;6.60;;;4.72;;
72785;SDS011;60902;53.876;10.674;2023-09-18T00:51:11;6.63;;;4.68;;
72785;SDS011;60902;53.876;10.674;2023-09-18T00:51:22;6.22;;;4.35;;
72785;SDS011;60902;53.876;10.674;2023-09-18T00:51:32;6.30;;;4.30;;
72785;SDS011;60902;53.876;10.674;2023-09-18T00:51:44;6.57;;;4.22;;
72785;SDS011;60902;53.876;10.674;2023-09-18T00:51:55;6.60;;;4.18;;
72785;SDS011;60902;53.876;10.674;2023-09-18T00:52:06;6.80;;;4.40;;
72785;SDS011;60902;53.876;10.674;2023-09-18T00:52:18;6.85;;;4.70;;
72785;SDS011;60902;53.876;10.674;2023-09-18T00:52:32;6.50;;;4.65;;
72785;SDS011;60902;53.876;10.674;2023-09-18T00:52:44;6.68;;;4.60;;
72785;SDS011;60902;53.876;10.674;2023-09-18T00:52:55;7.10;;;4.90;;
72785;SDS011;60902;53.876;10.674;2023-09-18T00:53:07;7.10;;;4.95;;
72785;SDS011;60902;53.876;10.674;2023-09-18T00:53:19;6.60;;;4.60;;
72785;SDS011;60902;53.876;10.674;2023-09-18T00:53:32;6.20;;;4.10;;
72785;SDS011;60902;53.876;10.674;2023-09-18T00:53:43;6.20;;;4.07;;
72785;SDS011;60902;53.876;10.674;2023-09-18T00:53:55;6.90;;;4.05;;
72785;SDS011;60902;53.876;10.674;2023-09-18T00:54:06;7.15;;;4.45;;
72785;SDS011;60902;53.876;10.674;2023-09-18T00:54:19;6.50;;;4.30;;
72785;SDS011;60902;53.876;10.674;2023-09-18T00:54:30;6.72;;;4.80;;
72785;SDS011;60902;53.876;10.674;2023-09-18T00:54:45;6.85;;;4.82;;
72785;SDS011;60902;53.876;10.674;2023-09-18T00:54:58;6.97;;;4.60;;
72785;SDS011;60902;53.876;10.674;2023-09-18T00:55:10;7.13;;;4.60;;
72785;SDS011;60902;53.876;10.674;2023-09-18T00:55:22;7.22;;;4.75;;
72785;SDS011;60902;53.876;10.674;2023-09-18T00:55:33;6.88;;;4.70;;
72785;SDS011;60902;53.876;10.674;2023-09-18T00:55:46;6.70;;;4.65;;
72785;SDS011;60902;53.876;10.674;2023-09-18T00:55:59;6.90;;;4.78;;
72785;SDS011;60902;53.876;10.674;2023-09-18T00:56:11;6.95;;;4.85;;
72785;SDS011;60902;53.876;10.674;2023-09-18T00:56:22;6.90;;;4.97;;
72785;SDS011;60902;53.876;10.674;2023-09-18T00:56:34;6.80;;;5.10;;
72785;SDS011;60902;53.876;10.674;2023-09-18T00:56:45;6.35;;;4.88;;
72785;SDS011;60902;53.876;10.674;2023-09-18T00:56:58;6.35;;;5.00;;
72785;SDS011;60902;53.876;10.674;2023-09-18T00:57:10;6.75;;;5.00;;
72785;SDS011;60902;53.876;10.674;2023-09-18T00:57:21;6.93;;;4.90;;
72785;SDS011;60902;53.876;10.674;2023-09-18T00:57:32;6.82;;;4.50;;
72785;SDS011;60902;53.876;10.674;2023-09-18T00:57:43;6.43;;;4.40;;
72785;SDS011;60902;53.876;10.674;2023-09-18T00:57:55;6.90;;;4.60;;
72785;SDS011;60902;53.876;10.674;2023-09-18T00:58:06;6.95;;;4.72;;
72785;SDS011;60902;53.876;10.674;2023-09-18T00:58:18;7.22;;;4.88;;
72785;SDS011;60902;53.876;10.674;2023-09-18T00:58:30;7.40;;;4.65;;
72785;SDS011;60902;53.876;10.674;2023-09-18T00:58:41;7.43;;;4.53;;
72785;SDS011;60902;53.876;10.674;2023-09-18T00:58:52;6.95;;;4.40;;
72785;SDS011;60902;53.876;10.674;2023-09-18T00:59:04;6.78;;;4.55;;
72785;SDS011;60902;53.876;10.674;2023-09-18T00:59:15;6.70;;;4.75;;
72785;SDS011;60902;53.876;10.674;2023-09-18T00:59:26;6.75;;;4.93;;
72785;SDS011;60902;53.876;10.674;2023-09-18T00:59:37;6.85;;;4.90;;
72785;SDS011;60902;53.876;10.674;2023-09-18T00:59:48;6.78;;;4.78;;
72785;SDS011;60902;53.876;10.674;2023-09-18T00:59:59;7.07;;;4.60;;
72785;SDS011;60902;53.876;10.674;2023-09-18T01:00:12;7.50;;;4.50;;
72785;SDS011;60902;53.876;10.674;2023-09-18T01:00:27;8.05;;;4.78;;
72785;SDS011;60902;53.876;10.674;2023-09-18T01:00:38;7.45;;;4.90;;
72785;SDS011;60902;53.876;10.674;2023-09-18T01:00:50;7.18;;;5.00;;
72785;SDS011;60902;53.876;10.674;2023-09-18T01:01:03;6.55;;;4.65;;
72785;SDS011;60902;53.876;10.674;2023-09-18T01:01:14;6.72;;;4.75;;
72785;SDS011;60902;53.876;10.674;2023-09-18T01:01:32;6.68;;;4.65;;
72785;SDS011;60902;53.876;10.674;2023-09-18T01:01:43;6.55;;;4.57;;
72785;SDS011;60902;53.876;10.674;2023-09-18T01:01:55;6.63;;;4.55;;
72785;SDS011;60902;53.876;10.674;2023-09-18T01:02:07;6.60;;;4.38;;
72785;SDS011;60902;53.876;10.674;2023-09-18T01:02:18;6.93;;;4.60;;
72785;SDS011;60902;53.876;10.674;2023-09-18T01:02:30;7.03;;;4.80;;
72785;SDS011;60902;53.876;10.674;2023-09-18T01:02:41;7.05;;;4.93;;
72785;SDS011;60902;53.876;10.674;2023-09-18T01:02:53;7.25;;;4.90;;
72785;SDS011;60902;53.876;10.674;2023-09-18T01:03:04;7.45;;;5.03;;
72785;SDS011;60902;53.876;10.674;2023-09-18T01:03:15;6.80;;;4.90;;
72785;SDS011;60902;53.876;10.674;2023-09-18T01:03:28;6.68;;;4.88;;
72785;SDS011;60902;53.876;10.674;2023-09-18T01:03:40;6.28;;;4.60;;
72785;SDS011;60902;53.876;10.674;2023-09-18T01:03:51;6.13;;;4.53;;
72785;SDS011;60902;53.876;10.674;2023-09-18T01:04:05;6.50;;;4.68;;
72785;SDS011;60902;53.876;10.674;2023-09-18T01:04:17;6.72;;;4.93;;
72785;SDS011;60902;53.876;10.674;2023-09-18T01:04:29;6.40;;;4.60;;
72785;SDS011;60902;53.876;10.674;2023-09-18T01:04:42;6.45;;;4.63;;
72785;SDS011;60902;53.876;10.674;2023-09-18T01:04:54;6.53;;;4.70;;
72785;SDS011;60902;53.876;10.674;2023-09-18T01:05:06;6.65;;;4.65;;
72785;SDS011;60902;53.876;10.674;2023-09-18T01:05:17;6.75;;;4.68;;
72785;SDS011;60902;53.876;10.674;2023-09-18T01:05:30;6.73;;;4.80;;
72785;SDS011;60902;53.876;10.674;2023-09-18T01:05:42;6.40;;;4.78;;
72785;SDS011;60902;53.876;10.674;2023-09-18T01:05:54;6.50;;;4.70;;
72785;SDS011;60902;53.876;10.674;2023-09-18T01:06:05;6.70;;;4.60;;
72785;SDS011;60902;53.876;10.674;2023-09-18T01:06:16;6.80;;;4.60;;
72785;SDS011;60902;53.876;10.674;2023-09-18T01:06:29;6.47;;;4.47;;
72785;SDS011;60902;53.876;10.674;2023-09-18T01:06:40;6.30;;;4.70;;
72785;SDS011;60902;53.876;10.674;2023-09-18T01:06:51;7.15;;;5.10;;
72785;SDS011;60902;53.876;10.674;2023-09-18T01:07:04;7.20;;;5.10;;
72785;SDS011;60902;53.876;10.674;2023-09-18T01:07:14;6.70;;;4.97;;
72785;SDS011;60902;53.876;10.674;2023-09-18T01:07:25;6.80;;;4.80;;
72785;SDS011;60902;53.876;10.674;2023-09-18T01:07:38;6.80;;;4.55;;
72785;SDS011;60902;53.876;10.674;2023-09-18T01:07:49;7.07;;;4.30;;
72785;SDS011;60902;53.876;10.674;2023-09-18T01:08:02;6.57;;;4.20;;
72785;SDS011;60902;53.876;10.674;2023-09-18T01:08:14;6.68;;;4.43;;
72785;SDS011;60902;53.876;10.674;2023-09-18T01:08:25;6.72;;;4.50;;
72785;SDS011;60902;53.876;10.674;2023-09-18T01:08:36;6.70;;;4.47;;
72785;SDS011;60902;53.876;10.674;2023-09-18T01:08:47;6.93;;;4.50;;
72785;SDS011;60902;53.876;10.674;2023-09-18T01:09:03;6.80;;;4.63;;
72785;SDS011;60902;53.876;10.674;2023-09-18T01:09:22;6.57;;;4.50;;
72785;SDS011;60902;53.876;10.674;2023-09-18T01:09:34;6.65;;;4.70;;
72785;SDS011;60902;53.876;10.674;2023-09-18T01:09:45;6.47;;;4.53;;
72785;SDS011;60902;53.876;10.674;2023-09-18T01:09:56;7.03;;;4.78;;
72785;SDS011;60902;53.876;10.674;2023-09-18T01:10:07;7.00;;;4.75;;
72785;SDS011;60902;53.876;10.674;2023-09-18T01:10:19;7.28;;;4.70;;
72785;SDS011;60902;53.876;10.674;2023-09-18T01:10:34;6.97;;;4.60;;